Enter the Airport ICAO Code

Search by Airport or City

Current Weather

SAZN | Presidente Perón International Airport

Neuquén, Neuquén, Argentina

Last Update 38 Minutes Ago

Sky with Few Clouds

Temperature of 30 ºC

Light to Moderate Winds from SouthWest

Temperature

30 ºC

Dew Point Temperature

05 ºC

Relative Humidity

20.73 %

Wind Direction

SouthWest (230º, Without Significant Variations)

Wind Velocity

17 km/h (09 kt)

Gusts

None

Visibility

Greater than 10 Kilometers

Sea Level Pressure

1009 hPa (Hectopascals)

Layers of Clouds

5% to 30% of Sky Covered from 1372 mts (4500 ft) Above Ground Level.

METAR SAZN 202200Z 23009KT 9999 FEW045 30/05 Q1009

Weather Forecast

SAZN | Presidente Perón International Airport

Neuquén, Neuquén, Argentina

Forecast valid for the next 19 Hours

From now on it is expected:

Clear Sky

Moderate Winds from SouthWest

From now on it is expected 24 hours with intermittent periods of:

Sky with Few Clouds

Moderate Winds from SouthWest with Gusts

In 8 to 10 hours it is expected the begining of:

Moderate Winds from West

Maximum Temperature

31 ºC in -4 Hours

Minimum Temperature

13 ºC in 11 Hours

TAF SAZN 201700Z 2018/2118 24010KT CAVOK TX31/2019Z TN13/2110Z TEMPO 2019/2123 24015G25KT 9999 FEW040 BECMG 2102/2104 24015KT CAVOK BECMG 2107/2109 27010KT